createdAt,value
2022-10-15T00:01:26.614Z,11.82
2022-10-15T00:03:54.608Z,11.81
2022-10-15T00:06:22.100Z,11.84
2022-10-15T00:08:49.871Z,11.88
2022-10-15T00:11:20.546Z,11.94
2022-10-15T00:13:49.046Z,11.94
2022-10-15T00:16:19.475Z,12.00
2022-10-15T00:18:47.589Z,11.95
2022-10-15T00:21:18.306Z,11.97
2022-10-15T00:23:47.321Z,12.02
2022-10-15T00:26:23.789Z,12.10
2022-10-15T00:28:54.171Z,12.03
2022-10-15T00:31:26.692Z,12.05
2022-10-15T00:33:56.676Z,12.06
2022-10-15T00:36:27.203Z,12.13
2022-10-15T00:38:55.431Z,12.07
2022-10-15T00:41:34.931Z,12.15
2022-10-15T00:44:30.080Z,12.32
2022-10-15T00:47:20.745Z,12.31
2022-10-15T00:50:00.286Z,12.25
2022-10-15T00:52:37.208Z,12.07
2022-10-15T00:55:28.908Z,12.16
2022-10-15T00:58:02.962Z,11.97
2022-10-15T01:00:31.731Z,11.93
2022-10-15T01:03:00.685Z,11.90
2022-10-15T01:05:29.176Z,11.90
2022-10-15T01:07:56.664Z,11.87
2022-10-15T01:10:30.220Z,12.00
2022-10-15T01:13:00.389Z,11.98
2022-10-15T01:15:42.988Z,12.08
2022-10-15T01:18:42.601Z,12.12
2022-10-15T01:21:49.213Z,12.28
2022-10-15T01:24:22.446Z,12.22
2022-10-15T01:27:10.085Z,12.08
2022-10-15T01:30:05.914Z,12.21
2022-10-15T01:32:44.725Z,12.13
2022-10-15T01:35:12.504Z,12.03
2022-10-15T01:37:56.560Z,12.17
2022-10-15T01:40:46.369Z,12.13
2022-10-15T01:46:24.853Z,12.00
2022-10-15T01:49:24.951Z,11.94
2022-10-15T01:51:53.771Z,12.23
2022-10-15T01:54:25.544Z,12.04
2022-10-15T01:56:55.494Z,11.92
2022-10-15T01:59:27.646Z,11.90
2022-10-15T02:01:57.905Z,11.82
2022-10-15T02:04:30.836Z,11.85
2022-10-15T02:07:16.149Z,11.95
2022-10-15T02:09:56.321Z,11.93
2022-10-15T02:12:49.806Z,12.00
2022-10-15T02:15:45.088Z,11.98
2022-10-15T02:18:29.647Z,11.89
2022-10-15T02:21:07.297Z,11.77
2022-10-15T02:23:57.834Z,11.96
2022-10-15T02:26:30.725Z,11.78
2022-10-15T02:29:01.296Z,11.77
2022-10-15T02:31:32.314Z,11.76
2022-10-15T02:34:04.166Z,11.81
2022-10-15T02:36:32.034Z,11.72
2022-10-15T02:39:03.839Z,11.74
2022-10-15T02:41:35.519Z,11.89
2022-10-15T02:44:04.284Z,11.85
2022-10-15T02:46:32.046Z,11.91
2022-10-15T02:48:59.655Z,11.90
2022-10-15T02:51:27.119Z,11.89
2022-10-15T02:53:55.207Z,11.90
2022-10-15T02:56:23.458Z,11.91
2022-10-15T02:58:50.889Z,11.88
2022-10-15T03:01:19.708Z,11.90
2022-10-15T03:03:48.277Z,11.90
2022-10-15T03:06:16.646Z,11.94
2022-10-15T03:08:44.705Z,11.94
2022-10-15T03:11:13.059Z,12.01
2022-10-15T03:13:41.486Z,12.00
2022-10-15T03:16:10.605Z,12.00
2022-10-15T03:18:40.948Z,12.03
2022-10-15T03:21:10.394Z,12.02
2022-10-15T03:23:38.903Z,12.02
2022-10-15T03:26:11.562Z,12.07
2022-10-15T03:28:39.204Z,12.11
2022-10-15T03:31:06.988Z,12.12
2022-10-15T03:33:34.530Z,12.16
2022-10-15T03:36:02.945Z,12.20
2022-10-15T03:38:30.386Z,12.23
2022-10-15T03:41:00.265Z,12.28
2022-10-15T03:43:38.783Z,12.28
2022-10-15T03:46:10.123Z,12.29
2022-10-15T03:48:42.289Z,12.33
2022-10-15T03:51:14.654Z,12.36
2022-10-15T03:53:46.598Z,12.33
2022-10-15T03:56:14.763Z,12.37
2022-10-15T03:58:44.417Z,12.43
2022-10-15T04:01:18.106Z,12.45
2022-10-15T04:03:45.688Z,12.39
2022-10-15T04:06:16.629Z,12.35
2022-10-15T04:08:45.740Z,12.33
2022-10-15T04:11:23.581Z,12.35
2022-10-15T04:14:01.038Z,12.34
2022-10-15T04:16:30.114Z,12.34
2022-10-15T04:18:59.006Z,12.32
2022-10-15T04:21:26.971Z,12.36
2022-10-15T04:23:58.827Z,12.41
2022-10-15T04:26:32.575Z,12.78
2022-10-15T04:29:01.565Z,12.43
2022-10-15T04:31:29.908Z,12.34
2022-10-15T04:33:58.693Z,12.39
2022-10-15T04:36:26.695Z,12.36
2022-10-15T04:39:20.388Z,12.37
2022-10-15T04:41:48.138Z,12.36
2022-10-15T04:44:18.277Z,12.29
2022-10-15T04:46:52.380Z,12.31
2022-10-15T04:49:42.760Z,12.33
2022-10-15T04:52:28.420Z,12.36
2022-10-15T04:54:58.935Z,12.36
2022-10-15T04:57:27.419Z,12.40
2022-10-15T04:59:57.730Z,12.44
2022-10-15T05:02:33.357Z,12.50
2022-10-15T05:05:23.941Z,12.52
2022-10-15T05:08:03.971Z,12.63
2022-10-15T05:10:35.746Z,12.57
2022-10-15T05:13:06.495Z,12.63
2022-10-15T05:15:37.183Z,12.70
2022-10-15T05:18:07.588Z,12.72
2022-10-15T05:20:45.323Z,12.76
2022-10-15T05:23:16.952Z,12.76
2022-10-15T05:25:54.104Z,12.73
2022-10-15T05:28:24.830Z,12.78
2022-10-15T05:30:52.379Z,12.83
2022-10-15T05:33:19.818Z,12.89
2022-10-15T05:35:47.763Z,12.84
2022-10-15T05:38:15.210Z,12.89
2022-10-15T05:40:49.400Z,12.99
2022-10-15T05:43:20.955Z,12.97
2022-10-15T05:45:49.446Z,13.07
2022-10-15T05:48:19.490Z,13.14
2022-10-15T05:50:47.648Z,13.26
2022-10-15T05:53:22.626Z,13.33
2022-10-15T05:55:54.539Z,13.37
2022-10-15T05:58:31.992Z,13.46
2022-10-15T06:01:04.711Z,13.54
2022-10-15T06:03:33.600Z,13.57
2022-10-15T06:06:01.357Z,13.59
2022-10-15T06:08:36.080Z,13.62
2022-10-15T06:11:06.951Z,13.71
2022-10-15T06:13:39.477Z,13.77
2022-10-15T06:16:07.489Z,13.84
2022-10-15T06:18:35.137Z,13.84
2022-10-15T06:21:03.326Z,13.93
2022-10-15T06:23:31.057Z,14.02
2022-10-15T06:26:02.964Z,14.22
2022-10-15T06:28:30.815Z,14.31
2022-10-15T06:31:00.186Z,14.34
2022-10-15T06:33:31.636Z,14.41
2022-10-15T06:36:07.106Z,14.46
2022-10-15T06:38:34.719Z,14.42
2022-10-15T06:41:05.766Z,14.51
2022-10-15T06:43:35.286Z,14.47
2022-10-15T06:46:06.648Z,14.44
2022-10-15T06:48:35.057Z,14.43
2022-10-15T06:51:03.021Z,14.43
2022-10-15T06:53:31.777Z,14.38
2022-10-15T06:56:00.418Z,14.46
2022-10-15T06:58:28.473Z,14.43
2022-10-15T07:01:07.056Z,14.60
2022-10-15T07:03:34.781Z,14.47
2022-10-15T07:06:07.080Z,14.56
2022-10-15T07:08:34.721Z,14.47
2022-10-15T07:11:07.377Z,14.65
2022-10-15T07:13:34.790Z,14.61
2022-10-15T07:16:09.342Z,14.66
2022-10-15T07:18:37.749Z,14.65
2022-10-15T07:21:07.175Z,14.63
2022-10-15T07:23:34.664Z,14.57
2022-10-15T07:26:02.403Z,14.52
2022-10-15T07:28:29.869Z,14.54
2022-10-15T07:31:01.958Z,14.60
2022-10-15T07:33:29.459Z,14.51
2022-10-15T07:36:02.389Z,14.57
2022-10-15T07:38:29.871Z,14.62
2022-10-15T07:41:01.584Z,14.78
2022-10-15T07:43:33.550Z,14.73
2022-10-15T07:46:01.663Z,14.73
2022-10-15T07:48:29.584Z,14.72
2022-10-15T07:50:57.680Z,14.78
2022-10-15T07:53:25.362Z,14.80
2022-10-15T07:56:08.143Z,14.97
2022-10-15T07:58:38.436Z,14.86
2022-10-15T08:01:08.004Z,14.84
2022-10-15T08:03:36.631Z,14.82
2022-10-15T08:06:06.838Z,14.81
2022-10-15T08:08:35.694Z,14.80
2022-10-15T08:11:14.122Z,14.90
2022-10-15T08:13:42.595Z,14.75
2022-10-15T08:16:12.500Z,14.79
2022-10-15T08:18:40.592Z,14.71
2022-10-15T08:21:08.604Z,14.69
2022-10-15T08:23:36.676Z,14.65
2022-10-15T08:26:04.491Z,14.60
2022-10-15T08:28:33.311Z,14.62
2022-10-15T08:31:05.193Z,14.62
2022-10-15T08:33:35.499Z,14.64
2022-10-15T08:36:05.926Z,14.62
2022-10-15T08:38:34.893Z,14.52
2022-10-15T08:41:06.279Z,14.49
2022-10-15T08:43:40.407Z,14.58
2022-10-15T08:46:44.851Z,14.60
2022-10-15T08:49:25.672Z,14.67
2022-10-15T08:51:57.435Z,14.68
2022-10-15T08:54:25.078Z,14.67
2022-10-15T08:57:04.452Z,14.75
2022-10-15T08:59:49.966Z,14.90
2022-10-15T09:02:30.949Z,14.92
2022-10-15T09:05:29.280Z,14.99
2022-10-15T09:08:07.580Z,15.04
2022-10-15T09:10:52.176Z,15.09
2022-10-15T09:13:32.979Z,15.09
2022-10-15T09:16:05.650Z,15.05
2022-10-15T09:18:36.429Z,15.05
2022-10-15T09:21:09.406Z,15.10
2022-10-15T09:23:36.870Z,15.08
2022-10-15T09:26:13.523Z,15.28
2022-10-15T09:28:53.322Z,15.28
2022-10-15T09:31:26.056Z,15.25
2022-10-15T09:34:10.994Z,15.28
2022-10-15T09:36:41.382Z,15.25
2022-10-15T09:39:23.915Z,15.32
2022-10-15T09:42:20.228Z,15.36
2022-10-15T09:44:48.347Z,15.18
2022-10-15T09:47:36.554Z,15.40
2022-10-15T09:50:06.729Z,15.25
2022-10-15T09:53:13.374Z,15.37
2022-10-15T09:55:43.518Z,15.16
2022-10-15T09:58:30.602Z,15.34
2022-10-15T10:01:01.702Z,15.23
2022-10-15T10:03:37.436Z,15.19
2022-10-15T10:06:13.307Z,15.30
2022-10-15T10:08:57.085Z,15.23
2022-10-15T10:11:25.917Z,15.19
2022-10-15T10:14:01.174Z,15.22
2022-10-15T10:16:30.450Z,15.14
2022-10-15T10:19:14.420Z,15.32
2022-10-15T10:21:43.624Z,15.22
2022-10-15T10:24:30.849Z,15.34
2022-10-15T10:27:00.029Z,15.24
2022-10-15T10:29:36.254Z,15.14
2022-10-15T10:32:23.786Z,15.32
2022-10-15T10:34:52.814Z,15.13
2022-10-15T10:37:21.358Z,15.11
2022-10-15T10:39:57.768Z,15.20
2022-10-15T10:42:38.591Z,15.15
2022-10-15T10:45:23.169Z,15.28
2022-10-15T10:47:50.756Z,15.07
2022-10-15T10:50:31.807Z,15.25
2022-10-15T10:53:24.014Z,15.27
2022-10-15T10:55:55.572Z,15.07
2022-10-15T10:58:29.677Z,15.02
2022-10-15T11:00:59.262Z,14.92
2022-10-15T11:03:38.943Z,15.05
2022-10-15T11:06:12.204Z,14.92
2022-10-15T11:08:45.814Z,14.82
2022-10-15T11:11:22.314Z,14.85
2022-10-15T11:14:08.210Z,14.92
2022-10-15T11:17:24.073Z,14.93
2022-10-15T11:20:20.967Z,14.76
2022-10-15T11:23:25.025Z,14.84
2022-10-15T11:26:37.551Z,14.85
2022-10-15T11:29:46.341Z,14.68
2022-10-15T11:32:47.967Z,14.68
2022-10-15T11:35:52.797Z,14.68
2022-10-15T11:38:32.979Z,14.63
2022-10-15T11:41:16.854Z,14.56
2022-10-15T11:44:05.774Z,14.63
2022-10-15T11:46:54.235Z,14.61
2022-10-15T11:52:40.180Z,14.63
2022-10-15T11:55:18.816Z,14.57
2022-10-15T11:57:49.226Z,14.39
2022-10-15T12:00:22.435Z,14.32
2022-10-15T12:02:51.527Z,14.38
2022-10-15T12:05:37.887Z,14.49
2022-10-15T12:08:07.488Z,14.22
2022-10-15T12:11:02.694Z,14.37
2022-10-15T12:13:49.602Z,14.36
2022-10-15T12:16:24.406Z,14.40
2022-10-15T12:19:13.819Z,14.40
2022-10-15T12:21:54.732Z,14.18
2022-10-15T12:24:44.905Z,14.27
2022-10-15T12:27:36.412Z,14.28
2022-10-15T12:30:03.803Z,14.04
2022-10-15T12:32:43.519Z,14.13
2022-10-15T12:35:16.918Z,14.12
2022-10-15T12:37:48.371Z,14.00
2022-10-15T12:40:30.012Z,14.06
2022-10-15T12:43:03.683Z,14.02
2022-10-15T12:45:39.171Z,13.90
2022-10-15T12:48:16.874Z,14.01
2022-10-15T12:50:46.914Z,13.84
2022-10-15T12:53:28.950Z,14.05
2022-10-15T12:56:15.883Z,14.16
2022-10-15T12:59:01.343Z,14.05
2022-10-15T13:01:30.506Z,13.78
2022-10-15T13:04:01.025Z,13.72
2022-10-15T13:06:39.007Z,13.75
2022-10-15T13:09:12.554Z,13.67
2022-10-15T13:11:54.349Z,13.87
2022-10-15T13:14:27.903Z,13.67
2022-10-15T13:16:59.164Z,13.63
2022-10-15T13:19:32.514Z,13.60
2022-10-15T13:22:06.118Z,13.61
2022-10-15T13:24:46.077Z,13.90
2022-10-15T13:27:23.807Z,13.94
2022-10-15T13:30:15.616Z,13.81
2022-10-15T13:32:50.670Z,13.68
2022-10-15T13:35:39.528Z,13.70
2022-10-15T13:38:07.076Z,13.44
2022-10-15T13:40:34.546Z,13.47
2022-10-15T13:43:03.222Z,13.47
2022-10-15T13:45:31.471Z,13.39
2022-10-15T13:47:59.374Z,13.36
2022-10-15T13:50:33.754Z,13.39
2022-10-15T13:53:10.014Z,13.41
2022-10-15T13:55:44.426Z,13.35
2022-10-15T13:58:30.593Z,13.43
2022-10-15T14:01:10.480Z,13.40
2022-10-15T14:03:52.757Z,13.46
2022-10-15T14:06:23.893Z,13.35
2022-10-15T14:08:54.143Z,13.26
2022-10-15T14:11:22.545Z,13.22
2022-10-15T14:13:51.308Z,13.20
2022-10-15T14:16:55.676Z,13.19
2022-10-15T14:19:30.057Z,13.13
2022-10-15T14:21:59.290Z,13.11
2022-10-15T14:24:33.569Z,13.12
2022-10-15T14:27:15.152Z,13.16
2022-10-15T14:29:45.339Z,12.92
2022-10-15T14:32:31.023Z,13.19
2022-10-15T14:35:00.389Z,12.95
2022-10-15T14:37:36.740Z,13.01
2022-10-15T14:40:08.328Z,12.95
2022-10-15T14:42:57.708Z,12.96
2022-10-15T14:45:28.712Z,12.85
2022-10-15T14:48:09.543Z,12.91
2022-10-15T14:50:42.382Z,12.83
2022-10-15T14:53:16.850Z,12.75
2022-10-15T14:55:51.279Z,12.83
2022-10-15T14:58:25.004Z,12.85
2022-10-15T15:00:59.263Z,12.87
2022-10-15T15:03:38.733Z,12.77
2022-10-15T15:06:07.272Z,12.64
2022-10-15T15:08:34.832Z,12.59
2022-10-15T15:11:04.600Z,12.63
2022-10-15T15:13:38.982Z,12.64
2022-10-15T15:16:07.390Z,12.56
2022-10-15T15:18:35.056Z,12.54
2022-10-15T15:21:07.446Z,12.63
2022-10-15T15:23:35.692Z,12.50
2022-10-15T15:26:03.170Z,12.49
2022-10-15T15:28:31.460Z,12.34
2022-10-15T15:31:05.718Z,12.57
2022-10-15T15:33:33.960Z,12.45
2022-10-15T15:36:23.625Z,12.49
2022-10-15T15:38:51.814Z,12.45
2022-10-15T15:41:22.589Z,12.50
2022-10-15T15:43:50.911Z,12.48
2022-10-15T15:46:18.625Z,12.45
2022-10-15T15:48:46.186Z,12.42
2022-10-15T15:51:26.878Z,12.49
2022-10-15T15:53:55.412Z,12.38
2022-10-15T15:56:23.517Z,12.36
2022-10-15T15:58:51.886Z,12.37
2022-10-15T16:01:20.705Z,12.42
2022-10-15T16:03:48.259Z,12.39
2022-10-15T16:06:16.119Z,12.39
2022-10-15T16:08:43.605Z,12.39
2022-10-15T16:11:11.021Z,12.37
2022-10-15T16:13:39.807Z,12.31
2022-10-15T16:16:07.373Z,12.32
2022-10-15T16:18:35.288Z,12.21
2022-10-15T16:21:02.667Z,12.23
2022-10-15T16:23:30.098Z,12.20
2022-10-15T16:25:58.863Z,12.19
2022-10-15T16:28:26.445Z,12.19
2022-10-15T16:30:54.190Z,12.13
2022-10-15T16:33:21.651Z,12.11
2022-10-15T16:35:54.617Z,12.17
2022-10-15T16:38:22.111Z,11.98
2022-10-15T16:40:49.495Z,11.97
2022-10-15T16:43:16.982Z,11.90
2022-10-15T16:45:44.428Z,11.87
2022-10-15T16:48:11.873Z,11.84
2022-10-15T16:50:40.504Z,11.82
2022-10-15T16:53:07.877Z,11.77
2022-10-15T16:55:35.451Z,11.72
2022-10-15T16:58:02.836Z,11.70
2022-10-15T17:00:30.497Z,11.66
2022-10-15T17:03:02.727Z,11.64
2022-10-15T17:05:31.908Z,11.65
2022-10-15T17:07:59.310Z,11.54
2022-10-15T17:10:26.834Z,11.47
2022-10-15T17:12:54.369Z,11.46
2022-10-15T17:15:21.866Z,11.45
2022-10-15T17:17:49.250Z,11.40
2022-10-15T17:20:18.258Z,11.45
2022-10-15T17:22:45.698Z,11.36
2022-10-15T17:25:13.146Z,11.36
2022-10-15T17:27:40.631Z,11.38
2022-10-15T17:30:08.754Z,11.39
2022-10-15T17:32:36.179Z,11.40
2022-10-15T17:35:04.468Z,11.37
2022-10-15T17:40:01.293Z,11.43
2022-10-15T17:42:30.743Z,11.49
2022-10-15T17:44:58.225Z,11.50
2022-10-15T17:47:26.426Z,11.54
2022-10-15T17:49:54.220Z,11.54
2022-10-15T17:52:21.640Z,11.56
2022-10-15T17:54:49.037Z,11.48
2022-10-15T17:57:16.455Z,11.51
2022-10-15T17:59:47.430Z,11.51
2022-10-15T18:02:17.753Z,11.47
2022-10-15T18:04:47.683Z,11.48
2022-10-15T18:07:18.799Z,11.43
2022-10-15T18:09:46.596Z,11.40
2022-10-15T18:12:14.073Z,11.39
2022-10-15T18:14:41.515Z,11.35
2022-10-15T18:17:08.927Z,11.34
2022-10-15T18:19:36.369Z,11.29
2022-10-15T18:22:03.814Z,11.28
2022-10-15T18:24:31.321Z,11.26
2022-10-15T18:27:05.041Z,11.21
2022-10-15T18:29:32.658Z,11.20
2022-10-15T18:32:00.137Z,11.19
2022-10-15T18:34:30.646Z,11.22
2022-10-15T18:36:58.125Z,11.19
2022-10-15T18:39:27.298Z,11.26
2022-10-15T18:41:55.971Z,11.23
2022-10-15T18:44:24.120Z,11.29
2022-10-15T18:46:52.188Z,11.32
2022-10-15T18:49:20.772Z,11.38
2022-10-15T18:51:52.085Z,11.40
2022-10-15T18:54:20.716Z,11.43
2022-10-15T18:56:48.742Z,11.46
2022-10-15T18:59:20.213Z,11.47
2022-10-15T19:01:49.712Z,11.53
2022-10-15T19:04:19.817Z,11.54
2022-10-15T19:06:50.114Z,11.59
2022-10-15T19:09:26.492Z,11.68
2022-10-15T19:11:55.680Z,11.54
2022-10-15T19:14:24.557Z,11.46
2022-10-15T19:16:52.521Z,11.51
2022-10-15T19:19:22.288Z,11.51
2022-10-15T19:21:51.463Z,11.44
2022-10-15T19:24:20.601Z,11.42
2022-10-15T19:26:48.320Z,11.38
2022-10-15T19:29:15.763Z,11.35
2022-10-15T19:31:48.300Z,11.38
2022-10-15T19:34:16.116Z,11.34
2022-10-15T19:36:51.087Z,11.38
2022-10-15T19:39:24.479Z,11.38
2022-10-15T19:41:53.212Z,11.35
2022-10-15T19:44:25.792Z,11.35
2022-10-15T19:46:55.732Z,11.37
2022-10-15T19:49:23.849Z,11.30
2022-10-15T19:51:51.931Z,11.30
2022-10-15T19:54:20.895Z,11.24
2022-10-15T19:56:49.014Z,11.19
2022-10-15T19:59:17.197Z,11.16
2022-10-15T20:01:44.715Z,11.14
2022-10-15T20:04:12.188Z,11.14
2022-10-15T20:06:39.701Z,11.12
2022-10-15T20:09:09.000Z,11.15
2022-10-15T20:11:38.169Z,11.17
2022-10-15T20:14:06.397Z,11.16
2022-10-15T20:16:33.949Z,11.19
2022-10-15T20:19:05.741Z,11.28
2022-10-15T20:21:33.787Z,11.24
2022-10-15T20:24:04.815Z,11.23
2022-10-15T20:26:33.423Z,11.27
2022-10-15T20:29:00.994Z,11.22
2022-10-15T20:31:33.066Z,11.21
2022-10-15T20:34:01.759Z,11.30
2022-10-15T20:36:29.411Z,11.31
2022-10-15T20:38:59.453Z,11.40
2022-10-15T20:41:28.118Z,11.32
2022-10-15T20:43:56.601Z,11.31
2022-10-15T20:46:47.083Z,11.54
2022-10-15T20:49:21.003Z,11.44
2022-10-15T20:51:48.323Z,11.74
2022-10-15T20:54:16.163Z,11.46
2022-10-15T20:56:43.704Z,11.36
2022-10-15T20:59:11.362Z,11.33
2022-10-15T21:01:39.589Z,11.34
2022-10-15T21:04:07.111Z,11.34
2022-10-15T21:06:34.573Z,11.33
2022-10-15T21:09:02.234Z,11.40
2022-10-15T21:11:29.957Z,11.43
2022-10-15T21:13:59.043Z,11.40
2022-10-15T21:16:28.389Z,11.44
2022-10-15T21:18:56.173Z,11.51
2022-10-15T21:21:23.610Z,11.51
2022-10-15T21:23:51.080Z,11.51
2022-10-15T21:26:19.369Z,11.49
2022-10-15T21:28:47.326Z,11.54
2022-10-15T21:31:17.724Z,11.57
2022-10-15T21:33:46.241Z,11.57
2022-10-15T21:36:15.771Z,11.55
2022-10-15T21:38:43.303Z,11.55
2022-10-15T21:41:10.817Z,11.56
2022-10-15T21:43:38.395Z,11.52
2022-10-15T21:46:11.115Z,11.56
2022-10-15T21:48:38.974Z,11.51
2022-10-15T21:51:14.224Z,11.58
2022-10-15T21:53:42.280Z,11.48
2022-10-15T21:56:10.469Z,11.45
2022-10-15T21:58:40.259Z,11.50
2022-10-15T22:01:22.070Z,11.62
2022-10-15T22:03:51.181Z,11.49
2022-10-15T22:06:20.286Z,11.46
2022-10-15T22:08:48.242Z,11.45
2022-10-15T22:11:23.242Z,11.57
2022-10-15T22:13:54.036Z,11.57
2022-10-15T22:16:21.833Z,11.51
2022-10-15T22:18:49.807Z,11.50
2022-10-15T22:21:26.111Z,11.58
2022-10-15T22:23:57.654Z,11.60
2022-10-15T22:26:31.225Z,11.53
2022-10-15T22:29:01.598Z,11.58
2022-10-15T22:31:29.365Z,11.55
2022-10-15T22:33:58.772Z,11.54
2022-10-15T22:36:31.334Z,11.63
2022-10-15T22:39:02.109Z,11.66
2022-10-15T22:41:31.859Z,11.52
2022-10-15T22:43:59.414Z,11.60
2022-10-15T22:46:28.665Z,11.64
2022-10-15T22:48:56.107Z,11.62
2022-10-15T22:51:23.603Z,11.59
2022-10-15T22:53:54.936Z,11.66
2022-10-15T22:56:22.901Z,11.63
2022-10-15T22:58:50.460Z,11.60
2022-10-15T23:01:26.727Z,11.73
2022-10-15T23:03:56.764Z,11.67
2022-10-15T23:06:25.818Z,11.64
2022-10-15T23:08:53.799Z,11.63
2022-10-15T23:11:24.237Z,11.61
2022-10-15T23:13:59.987Z,11.67
2022-10-15T23:16:30.684Z,11.57
2022-10-15T23:19:05.892Z,11.65
2022-10-15T23:21:38.311Z,11.60
2022-10-15T23:24:07.133Z,11.62
2022-10-15T23:26:35.308Z,11.56
2022-10-15T23:29:05.471Z,11.63
2022-10-15T23:31:35.268Z,11.63
2022-10-15T23:34:04.412Z,11.57
2022-10-15T23:36:33.371Z,11.58
2022-10-15T23:39:03.930Z,11.58
2022-10-15T23:41:31.970Z,11.46
2022-10-15T23:43:59.996Z,11.52
2022-10-15T23:46:27.613Z,11.53
2022-10-15T23:48:55.166Z,11.56
2022-10-15T23:51:23.701Z,11.60
2022-10-15T23:53:52.611Z,11.61
2022-10-15T23:56:20.919Z,11.57
2022-10-15T23:58:53.691Z,11.61
